オークランド の空港の天気 - METARとTAF

オークランド国際空港 ( NZAA / AKL ) - ニュージーランド オークランド|オークランド
飛行場実況気象(Metar)
観測時間10/26 10:30 NZDT (10/25 21:30 UTC)
風向・風速北北東 5m/s
視程10km以上
天気現象
少しの雲 雲底高度 550m
全天を覆う雲 雲底高度 790m
気温19℃
湿度78%
気圧1024hPa
METARNZAA 252130Z AUTO 03009KT 9999 FEW018/// OVC026/// 19/15 Q1024 NOSIG
過去の天気等 Google飛行場航空写真 Wunderground天気予報

過去48時間のMETAR

飛行場予報(TAF)
発表時間: 10/26 06:06 NZDT (10/25 17:06 UTC)
予報対象時間: 26日7時 NZDT ~ 27日7時 NZDT
風向・風速北北東 4m/s
視程10km以上
全天の4割程度の雲 雲底高度 760m
TAF NZAA 251706Z 2518/2618 02008KT 9999 SCT025